createdAt,value
2018-10-07T00:01:14.011Z,10.77
2018-10-07T00:03:43.226Z,8.67
2018-10-07T00:06:11.433Z,9.13
2018-10-07T00:08:39.611Z,8.63
2018-10-07T00:11:09.339Z,10.07
2018-10-07T00:13:37.597Z,10.33
2018-10-07T00:16:05.847Z,16.30
2018-10-07T00:18:34.144Z,14.90
2018-10-07T00:21:02.464Z,13.43
2018-10-07T00:23:30.703Z,18.57
2018-10-07T00:25:59.061Z,18.07
2018-10-07T00:28:27.276Z,17.97
2018-10-07T00:30:55.580Z,17.90
2018-10-07T00:33:24.095Z,21.33
2018-10-07T00:35:52.327Z,26.73
2018-10-07T00:38:20.646Z,28.43
2018-10-07T00:40:48.987Z,29.07
2018-10-07T00:43:17.275Z,36.97
2018-10-07T00:45:45.684Z,41.43
2018-10-07T00:48:14.095Z,41.93
2018-10-07T00:50:42.538Z,35.57
2018-10-07T00:53:10.935Z,41.63
2018-10-07T00:55:39.239Z,41.50
2018-10-07T00:58:07.599Z,40.17
2018-10-07T01:00:35.831Z,38.10
2018-10-07T01:03:04.266Z,44.53
2018-10-07T01:05:32.523Z,45.70
2018-10-07T01:08:01.333Z,43.00
2018-10-07T01:10:29.632Z,49.63
2018-10-07T01:12:58.007Z,42.57
2018-10-07T01:15:26.320Z,43.70
2018-10-07T01:17:54.576Z,48.93
2018-10-07T01:20:22.885Z,49.40
2018-10-07T01:22:51.196Z,52.57
2018-10-07T01:25:19.647Z,54.37
2018-10-07T01:27:48.734Z,47.63
2018-10-07T01:30:21.582Z,50.13
2018-10-07T01:32:50.824Z,56.63
2018-10-07T01:35:19.155Z,58.53
2018-10-07T01:37:47.797Z,50.47
2018-10-07T01:40:16.152Z,62.93
2018-10-07T01:42:44.693Z,65.17
2018-10-07T01:45:13.007Z,55.00
2018-10-07T01:47:41.535Z,60.63
2018-10-07T01:50:09.876Z,53.30
2018-10-07T01:52:38.067Z,53.20
2018-10-07T01:55:06.323Z,58.77
2018-10-07T01:57:34.461Z,66.20
2018-10-07T02:00:02.715Z,63.23
2018-10-07T02:02:30.906Z,62.73
2018-10-07T02:04:59.248Z,59.70
2018-10-07T02:07:27.463Z,70.43
2018-10-07T02:09:55.619Z,71.63
2018-10-07T02:12:23.819Z,70.03
2018-10-07T02:14:52.043Z,69.47
2018-10-07T02:17:20.220Z,65.37
2018-10-07T02:19:48.396Z,55.30
2018-10-07T02:22:16.606Z,56.30
2018-10-07T02:24:44.747Z,65.43
2018-10-07T02:27:12.906Z,66.47
2018-10-07T02:29:41.117Z,67.07
2018-10-07T02:32:09.440Z,69.50
2018-10-07T02:34:37.599Z,63.70
2018-10-07T02:37:06.010Z,63.10
2018-10-07T02:39:34.200Z,66.67
2018-10-07T02:42:03.686Z,62.43
2018-10-07T02:44:31.894Z,71.73
2018-10-07T02:47:00.295Z,61.53
2018-10-07T02:49:28.544Z,60.60
2018-10-07T02:51:56.978Z,61.87
2018-10-07T02:54:25.635Z,68.70
2018-10-07T02:56:53.850Z,63.57
2018-10-07T02:59:22.038Z,71.63
2018-10-07T03:01:50.399Z,81.33
2018-10-07T03:04:18.613Z,72.47
2018-10-07T03:06:46.799Z,78.60
2018-10-07T03:09:14.984Z,69.33
2018-10-07T03:11:43.157Z,69.40
2018-10-07T03:14:11.356Z,70.67
2018-10-07T03:16:39.551Z,79.80
2018-10-07T03:19:07.758Z,80.53
2018-10-07T03:21:35.938Z,77.33
2018-10-07T03:24:04.204Z,66.30
2018-10-07T03:26:32.412Z,83.43
2018-10-07T03:29:00.640Z,82.53
2018-10-07T03:31:28.789Z,76.33
2018-10-07T03:33:56.984Z,77.50
2018-10-07T03:36:25.243Z,85.03
2018-10-07T03:38:53.509Z,78.87
2018-10-07T03:41:21.762Z,74.93
2018-10-07T03:43:49.968Z,85.83
2018-10-07T03:46:18.138Z,87.47
2018-10-07T03:48:46.383Z,85.67
2018-10-07T03:51:14.603Z,88.30
2018-10-07T03:53:42.835Z,94.73
2018-10-07T03:56:11.007Z,92.07
2018-10-07T03:58:39.155Z,86.77
2018-10-07T04:01:07.392Z,85.60
2018-10-07T04:03:35.662Z,95.47
2018-10-07T04:06:03.843Z,91.37
2018-10-07T04:08:32.032Z,94.10
2018-10-07T04:11:00.186Z,87.87
2018-10-07T04:13:28.432Z,85.93
2018-10-07T04:15:56.639Z,98.00
2018-10-07T04:18:24.822Z,84.30
2018-10-07T04:20:53.006Z,85.53
2018-10-07T04:23:21.192Z,90.80
2018-10-07T04:25:49.362Z,79.17
2018-10-07T04:28:17.547Z,87.80
2018-10-07T04:30:45.724Z,83.17
2018-10-07T04:33:13.875Z,85.60
2018-10-07T04:35:42.111Z,81.50
2018-10-07T04:38:10.351Z,93.23
2018-10-07T04:40:38.548Z,85.50
2018-10-07T04:43:06.699Z,89.80
2018-10-07T04:45:34.865Z,76.50
2018-10-07T04:48:03.011Z,73.93
2018-10-07T04:50:31.199Z,68.27
2018-10-07T04:52:59.426Z,69.70
2018-10-07T04:55:27.607Z,65.47
2018-10-07T04:57:55.752Z,66.23
2018-10-07T05:00:23.994Z,61.43
2018-10-07T05:02:52.156Z,48.20
2018-10-07T05:05:20.364Z,44.90
2018-10-07T05:07:48.537Z,38.90
2018-10-07T05:10:52.571Z,37.17
2018-10-07T05:13:23.843Z,37.03
2018-10-07T05:15:54.752Z,30.73
2018-10-07T05:18:23.230Z,30.57
2018-10-07T05:20:51.555Z,27.87
2018-10-07T05:23:19.740Z,23.67
2018-10-07T05:25:47.966Z,28.43
2018-10-07T05:28:16.443Z,21.37
2018-10-07T05:30:44.700Z,20.57
2018-10-07T05:33:12.992Z,21.47
2018-10-07T05:35:41.183Z,18.00
2018-10-07T05:38:09.395Z,18.00
2018-10-07T05:40:37.625Z,19.40
2018-10-07T05:43:05.807Z,14.07
2018-10-07T05:45:34.093Z,16.43
2018-10-07T05:48:02.309Z,13.73
2018-10-07T05:50:30.543Z,14.90
2018-10-07T05:52:58.759Z,11.97
2018-10-07T05:55:27.054Z,13.23
2018-10-07T05:57:57.851Z,10.27
2018-10-07T06:00:27.891Z,12.07
2018-10-07T06:03:02.251Z,9.93
2018-10-07T06:05:30.493Z,8.33
2018-10-07T06:07:58.746Z,11.77
2018-10-07T06:10:26.944Z,7.50
2018-10-07T06:12:55.143Z,10.33
2018-10-07T06:15:31.295Z,8.77
2018-10-07T06:17:59.763Z,11.43
2018-10-07T06:20:28.646Z,8.83
2018-10-07T06:22:57.196Z,8.93
2018-10-07T06:25:25.524Z,11.40
2018-10-07T06:27:54.008Z,12.27
2018-10-07T06:30:22.228Z,15.93
2018-10-07T06:32:50.636Z,14.50
2018-10-07T06:35:18.840Z,14.53
2018-10-07T06:37:47.111Z,11.57
2018-10-07T06:40:15.255Z,14.13
2018-10-07T06:42:43.528Z,11.97
2018-10-07T06:45:11.727Z,16.80
2018-10-07T06:47:40.114Z,19.40
2018-10-07T06:50:08.337Z,16.87
2018-10-07T06:52:36.508Z,15.87
2018-10-07T06:55:04.657Z,16.07
2018-10-07T06:57:32.860Z,14.97
2018-10-07T07:00:01.192Z,16.77
2018-10-07T07:02:29.551Z,15.27
2018-10-07T07:04:57.731Z,14.90
2018-10-07T07:07:26.316Z,15.70
2018-10-07T07:09:54.845Z,18.40
2018-10-07T07:12:23.190Z,18.63
2018-10-07T07:14:51.420Z,15.77
2018-10-07T07:17:19.598Z,20.53
2018-10-07T07:19:47.996Z,16.07
2018-10-07T07:22:16.172Z,17.73
2018-10-07T07:24:44.363Z,16.67
2018-10-07T07:27:12.547Z,18.50
2018-10-07T07:29:41.292Z,15.37
2018-10-07T07:32:09.471Z,11.43
2018-10-07T07:34:37.611Z,13.53
2018-10-07T07:37:05.904Z,11.23
2018-10-07T07:39:34.122Z,10.93
2018-10-07T07:42:02.310Z,11.57
2018-10-07T07:44:30.493Z,12.97
2018-10-07T07:46:58.691Z,10.87
2018-10-07T07:49:26.942Z,9.77
2018-10-07T07:51:55.159Z,10.83
2018-10-07T07:54:23.354Z,10.70
2018-10-07T07:56:51.512Z,13.70
2018-10-07T07:59:19.696Z,12.40
2018-10-07T08:01:47.863Z,17.17
2018-10-07T08:04:16.051Z,13.60
2018-10-07T08:06:44.267Z,12.60
2018-10-07T08:09:12.478Z,12.03
2018-10-07T08:11:40.790Z,11.90
2018-10-07T08:14:09.020Z,10.93
2018-10-07T08:16:37.267Z,13.97
2018-10-07T08:19:05.500Z,11.33
2018-10-07T08:21:33.642Z,11.23
2018-10-07T08:24:01.863Z,13.60
2018-10-07T08:26:30.138Z,10.57
2018-10-07T08:28:58.327Z,11.70
2018-10-07T08:31:26.490Z,10.07
2018-10-07T08:33:54.683Z,10.30
2018-10-07T08:36:22.883Z,9.50
2018-10-07T08:38:51.155Z,9.47
2018-10-07T08:41:19.527Z,9.63
2018-10-07T08:43:47.768Z,12.30
2018-10-07T08:46:16.175Z,8.60
2018-10-07T08:48:45.193Z,10.77
2018-10-07T08:51:14.289Z,9.93
2018-10-07T08:53:42.696Z,11.07
2018-10-07T08:56:11.157Z,9.23
2018-10-07T08:58:39.330Z,8.07
2018-10-07T09:01:07.539Z,9.90
2018-10-07T09:03:36.204Z,10.40
2018-10-07T09:06:04.436Z,7.07
2018-10-07T09:08:32.877Z,9.00
2018-10-07T09:11:01.119Z,9.57
2018-10-07T09:13:29.337Z,8.60
2018-10-07T09:15:57.484Z,6.67
2018-10-07T09:18:25.705Z,8.60
2018-10-07T09:20:54.001Z,10.03
2018-10-07T09:23:22.142Z,8.27
2018-10-07T09:25:50.329Z,7.77
2018-10-07T09:28:18.508Z,7.27
2018-10-07T09:30:46.671Z,8.27
2018-10-07T09:33:14.863Z,7.30
2018-10-07T09:35:43.054Z,9.23
2018-10-07T09:38:11.216Z,12.83
2018-10-07T09:40:39.383Z,7.50
2018-10-07T09:43:07.551Z,7.33
2018-10-07T09:45:35.754Z,6.83
2018-10-07T09:48:03.975Z,6.67
2018-10-07T09:50:32.135Z,8.53
2018-10-07T09:53:00.351Z,7.90
2018-10-07T09:55:28.674Z,6.37
2018-10-07T09:57:57.324Z,7.10
2018-10-07T10:00:40.842Z,6.37
2018-10-07T10:03:10.323Z,5.00
2018-10-07T10:05:38.535Z,3.63
2018-10-07T10:08:06.890Z,3.97
2018-10-07T10:10:35.083Z,3.73
2018-10-07T10:13:03.394Z,4.37
2018-10-07T10:15:31.583Z,3.90
2018-10-07T10:18:02.288Z,4.77
2018-10-07T10:20:36.931Z,4.67
2018-10-07T10:23:11.928Z,3.27
2018-10-07T10:25:58.124Z,3.33
2018-10-07T10:29:08.559Z,4.00
2018-10-07T10:32:15.087Z,3.30
2018-10-07T10:34:54.953Z,2.67
2018-10-07T10:37:29.778Z,2.53
2018-10-07T10:39:59.949Z,1.87
2018-10-07T10:43:37.185Z,2.47
2018-10-07T10:46:22.663Z,3.00
2018-10-07T10:49:03.895Z,3.87
2018-10-07T10:53:47.547Z,2.43
2018-10-07T10:56:19.464Z,3.20
2018-10-07T10:59:12.539Z,2.90
2018-10-07T11:03:00.571Z,2.37
2018-10-07T11:05:32.419Z,2.27
2018-10-07T11:10:14.169Z,1.23
2018-10-07T11:12:57.576Z,2.33
2018-10-07T11:15:29.748Z,1.50
2018-10-07T11:18:04.840Z,1.53
2018-10-07T11:20:49.339Z,2.03
2018-10-07T11:23:41.084Z,1.10
2018-10-07T11:26:19.147Z,1.10
2018-10-07T11:29:08.658Z,1.60
2018-10-07T11:32:05.142Z,1.23
2018-10-07T11:34:42.091Z,0.80
2018-10-07T11:37:25.695Z,1.57
2018-10-07T11:40:08.650Z,2.53
2018-10-07T11:43:12.512Z,0.80
2018-10-07T11:45:44.631Z,0.80
2018-10-07T11:48:23.985Z,3.00
2018-10-07T11:51:01.865Z,2.60
2018-10-07T11:53:52.491Z,1.40
2018-10-07T11:56:21.920Z,1.67
2018-10-07T11:58:50.079Z,2.77
2018-10-07T12:01:18.239Z,1.03
2018-10-07T12:03:46.442Z,1.67
2018-10-07T12:06:14.595Z,1.07
2018-10-07T12:08:42.747Z,1.60
2018-10-07T12:11:10.931Z,1.33
2018-10-07T12:13:39.153Z,1.83
2018-10-07T12:16:07.781Z,2.13
2018-10-07T12:18:35.930Z,1.77
2018-10-07T12:21:04.123Z,1.57
2018-10-07T12:23:32.286Z,1.67
2018-10-07T12:26:00.528Z,1.50
2018-10-07T12:28:28.722Z,1.57
2018-10-07T12:30:56.911Z,0.60
2018-10-07T12:33:25.142Z,1.70
2018-10-07T12:35:53.372Z,2.10
2018-10-07T12:38:21.619Z,4.30
2018-10-07T12:40:49.892Z,1.07
2018-10-07T12:43:18.130Z,2.63
2018-10-07T12:45:46.300Z,2.00
2018-10-07T12:48:14.512Z,0.67
2018-10-07T12:50:42.840Z,1.10
2018-10-07T12:53:11.211Z,2.83
2018-10-07T12:55:39.550Z,2.63
2018-10-07T12:58:07.731Z,2.07
2018-10-07T13:00:35.888Z,0.87
2018-10-07T13:03:04.226Z,1.30
2018-10-07T13:05:32.423Z,1.13
2018-10-07T13:08:00.619Z,1.13
2018-10-07T13:10:28.799Z,1.43
2018-10-07T13:12:56.963Z,1.13
2018-10-07T13:15:25.190Z,1.97
2018-10-07T13:17:53.411Z,1.27
2018-10-07T13:20:21.582Z,1.17
2018-10-07T13:22:50.044Z,1.67
2018-10-07T13:25:18.214Z,1.10
2018-10-07T13:27:46.491Z,1.43
2018-10-07T13:30:14.727Z,1.37
2018-10-07T13:32:42.971Z,1.53
2018-10-07T13:35:11.508Z,1.93
2018-10-07T13:37:46.671Z,1.53
2018-10-07T13:40:14.926Z,1.67
2018-10-07T13:42:43.154Z,2.60
2018-10-07T13:45:11.347Z,4.47
2018-10-07T13:47:39.539Z,1.23
2018-10-07T13:50:07.710Z,0.80
2018-10-07T13:52:35.955Z,1.43
2018-10-07T13:55:04.454Z,1.07
2018-10-07T13:57:32.627Z,2.83
2018-10-07T14:00:00.915Z,1.67
2018-10-07T14:02:29.122Z,0.90
2018-10-07T14:04:57.311Z,1.83
2018-10-07T14:07:25.515Z,0.73
2018-10-07T14:09:53.675Z,1.70
2018-10-07T14:12:21.862Z,0.70
2018-10-07T14:14:50.047Z,2.03
2018-10-07T14:17:18.260Z,1.23
2018-10-07T14:19:46.491Z,3.83
2018-10-07T14:22:14.704Z,1.77
2018-10-07T14:24:42.895Z,1.83
2018-10-07T14:27:11.184Z,1.37
2018-10-07T14:29:39.355Z,3.03
2018-10-07T14:32:07.583Z,1.40
2018-10-07T14:34:35.890Z,1.17
2018-10-07T14:37:04.366Z,2.73
2018-10-07T14:39:32.519Z,1.60
2018-10-07T14:42:00.748Z,1.17
2018-10-07T14:44:28.946Z,1.23
2018-10-07T14:46:57.243Z,1.17
2018-10-07T14:49:25.451Z,2.37
2018-10-07T14:51:53.615Z,1.53
2018-10-07T14:54:21.838Z,1.23
2018-10-07T14:56:50.030Z,1.17
2018-10-07T14:59:18.215Z,0.70
2018-10-07T15:01:46.410Z,1.53
2018-10-07T15:04:14.631Z,1.10
2018-10-07T15:06:42.786Z,1.07
2018-10-07T15:09:11.961Z,1.60
2018-10-07T15:11:40.231Z,2.30
2018-10-07T15:14:08.760Z,1.57
2018-10-07T15:16:36.955Z,1.47
2018-10-07T15:19:05.227Z,3.10
2018-10-07T15:21:33.488Z,1.10
2018-10-07T15:24:01.722Z,2.27
2018-10-07T15:26:29.974Z,1.57
2018-10-07T15:28:58.171Z,1.70
2018-10-07T15:31:26.471Z,1.37
2018-10-07T15:33:54.755Z,0.87
2018-10-07T15:36:23.243Z,0.70
2018-10-07T15:38:51.364Z,3.13
2018-10-07T15:41:19.566Z,3.10
2018-10-07T15:43:47.726Z,3.27
2018-10-07T15:46:16.003Z,2.67
2018-10-07T15:48:44.266Z,9.27
2018-10-07T15:51:12.506Z,5.30
2018-10-07T15:53:40.783Z,3.30
2018-10-07T15:56:09.055Z,1.27
2018-10-07T15:58:37.318Z,2.37
2018-10-07T16:01:05.514Z,1.43
2018-10-07T16:03:33.698Z,1.17
2018-10-07T16:06:02.032Z,1.07
2018-10-07T16:08:30.181Z,1.87
2018-10-07T16:10:58.383Z,2.33
2018-10-07T16:13:26.744Z,1.47
2018-10-07T16:15:54.917Z,1.23
2018-10-07T16:18:23.122Z,2.20
2018-10-07T16:20:51.233Z,2.03
2018-10-07T16:23:19.479Z,2.60
2018-10-07T16:25:47.651Z,2.70
2018-10-07T16:28:15.819Z,2.43
2018-10-07T16:30:44.057Z,2.47
2018-10-07T16:33:12.211Z,3.60
2018-10-07T16:35:40.454Z,0.93
2018-10-07T16:38:08.631Z,1.87
2018-10-07T16:40:36.794Z,5.83
2018-10-07T16:43:05.008Z,15.93
2018-10-07T16:45:33.212Z,11.33
2018-10-07T16:48:01.417Z,6.57
2018-10-07T16:50:29.743Z,5.07
2018-10-07T16:52:57.926Z,4.27
2018-10-07T16:55:26.087Z,3.03
2018-10-07T16:57:54.495Z,13.47
2018-10-07T17:00:22.686Z,20.40
2018-10-07T17:02:50.847Z,17.73
2018-10-07T17:05:19.031Z,16.33
2018-10-07T17:07:47.204Z,19.87
2018-10-07T17:10:15.415Z,20.57
2018-10-07T17:12:43.652Z,13.33
2018-10-07T17:15:11.885Z,9.20
2018-10-07T17:17:40.092Z,13.70
2018-10-07T17:20:08.310Z,24.73
2018-10-07T17:22:36.497Z,25.53
2018-10-07T17:25:04.881Z,28.20
2018-10-07T17:27:33.170Z,29.47
2018-10-07T17:30:01.389Z,19.47
2018-10-07T17:32:29.596Z,8.33
2018-10-07T17:34:57.807Z,5.50
2018-10-07T17:37:26.087Z,4.40
2018-10-07T17:39:54.249Z,3.40
2018-10-07T17:42:22.395Z,5.00
2018-10-07T17:44:50.599Z,3.47
2018-10-07T17:47:18.801Z,4.13
2018-10-07T17:49:47.019Z,2.10
2018-10-07T17:52:15.213Z,2.20
2018-10-07T17:54:43.386Z,2.40
2018-10-07T17:57:11.558Z,4.87
2018-10-07T17:59:39.770Z,3.60
2018-10-07T18:02:08.335Z,2.20
2018-10-07T18:04:36.546Z,3.13
2018-10-07T18:07:04.697Z,2.30
2018-10-07T18:09:32.914Z,3.20
2018-10-07T18:12:01.108Z,1.77
2018-10-07T18:14:29.270Z,4.60
2018-10-07T18:16:57.442Z,1.30
2018-10-07T18:19:25.608Z,2.50
2018-10-07T18:21:53.832Z,2.97
2018-10-07T18:24:22.019Z,2.67
2018-10-07T18:26:50.235Z,1.60
2018-10-07T18:29:18.423Z,1.77
2018-10-07T18:31:46.601Z,2.57
2018-10-07T18:34:14.850Z,1.30
2018-10-07T18:36:43.055Z,2.50
2018-10-07T18:39:11.262Z,3.53
2018-10-07T18:41:40.139Z,2.43
2018-10-07T18:44:08.623Z,2.67
2018-10-07T18:46:36.788Z,1.60
2018-10-07T18:49:05.275Z,2.30
2018-10-07T18:51:33.434Z,2.27
2018-10-07T18:54:01.595Z,2.43
2018-10-07T18:56:29.778Z,2.97
2018-10-07T18:58:57.956Z,3.63
2018-10-07T19:01:26.194Z,3.70
2018-10-07T19:03:54.338Z,2.70
2018-10-07T19:06:22.539Z,1.87
2018-10-07T19:08:50.824Z,2.40
2018-10-07T19:11:18.995Z,2.73
2018-10-07T19:13:47.215Z,3.03
2018-10-07T19:16:15.460Z,3.63
2018-10-07T19:18:43.694Z,3.70
2018-10-07T19:21:11.888Z,2.30
2018-10-07T19:23:40.084Z,4.07
2018-10-07T19:26:08.315Z,4.17
2018-10-07T19:28:36.547Z,2.10
2018-10-07T19:31:04.718Z,4.40
2018-10-07T19:33:32.874Z,2.40
2018-10-07T19:36:01.056Z,1.70
2018-10-07T19:38:29.244Z,3.20
2018-10-07T19:40:57.409Z,1.90
2018-10-07T19:43:25.624Z,3.47
2018-10-07T19:45:54.181Z,2.57
2018-10-07T19:48:22.326Z,1.80
2018-10-07T19:50:50.806Z,2.80
2018-10-07T19:53:19.011Z,3.27
2018-10-07T19:55:47.168Z,2.47
2018-10-07T19:58:15.350Z,2.87
2018-10-07T20:00:43.599Z,2.70
2018-10-07T20:03:11.851Z,2.43
2018-10-07T20:05:40.214Z,1.83
2018-10-07T20:08:08.391Z,3.70
2018-10-07T20:10:36.531Z,3.20
2018-10-07T20:13:04.726Z,2.90
2018-10-07T20:15:32.890Z,3.20
2018-10-07T20:18:01.854Z,5.40
2018-10-07T20:20:29.995Z,3.60
2018-10-07T20:22:58.187Z,3.50
2018-10-07T20:25:26.351Z,3.00
2018-10-07T20:27:54.534Z,3.00
2018-10-07T20:30:22.742Z,3.30
2018-10-07T20:32:50.899Z,2.20
2018-10-07T20:35:19.076Z,3.43
2018-10-07T20:37:47.277Z,3.53
2018-10-07T20:40:15.469Z,4.20
2018-10-07T20:42:43.595Z,2.57
2018-10-07T20:45:11.746Z,2.97
2018-10-07T20:47:39.959Z,3.13
2018-10-07T20:50:08.212Z,2.43
2018-10-07T20:52:36.453Z,3.90
2018-10-07T20:55:04.579Z,4.17
2018-10-07T20:57:32.726Z,5.13
2018-10-07T21:00:00.899Z,5.07
2018-10-07T21:02:29.204Z,2.53
2018-10-07T21:04:57.314Z,2.00
2018-10-07T21:07:25.451Z,3.47
2018-10-07T21:09:53.611Z,3.43
2018-10-07T21:12:21.830Z,3.43
2018-10-07T21:14:50.024Z,4.07
2018-10-07T21:17:18.244Z,2.20
2018-10-07T21:19:46.534Z,3.70
2018-10-07T21:22:21.012Z,5.20
2018-10-07T21:24:49.207Z,2.83
2018-10-07T21:27:17.335Z,4.07
2018-10-07T21:29:45.625Z,4.23
2018-10-07T21:32:13.728Z,5.17
2018-10-07T21:34:41.915Z,3.23
2018-10-07T21:37:10.135Z,3.27
2018-10-07T21:39:38.316Z,3.57
2018-10-07T21:42:06.506Z,3.60
2018-10-07T21:44:34.700Z,4.03
2018-10-07T21:47:02.903Z,6.20
2018-10-07T21:49:31.099Z,4.17
2018-10-07T21:51:59.285Z,3.10
2018-10-07T21:54:27.436Z,4.17
2018-10-07T21:56:55.614Z,4.07
2018-10-07T21:59:23.759Z,3.17
2018-10-07T22:01:51.983Z,3.93
2018-10-07T22:04:20.146Z,4.33
2018-10-07T22:06:48.426Z,4.03
2018-10-07T22:09:16.624Z,4.77
2018-10-07T22:11:44.747Z,3.83
2018-10-07T22:14:12.975Z,4.53
2018-10-07T22:16:41.163Z,4.27
2018-10-07T22:19:09.387Z,3.93
2018-10-07T22:21:37.579Z,4.90
2018-10-07T22:24:06.506Z,3.67
2018-10-07T22:26:34.697Z,3.80
2018-10-07T22:29:02.842Z,5.40
2018-10-07T22:31:30.978Z,4.67
2018-10-07T22:33:59.143Z,4.57
2018-10-07T22:36:27.310Z,5.30
2018-10-07T22:38:55.470Z,4.50
2018-10-07T22:41:23.748Z,4.57
2018-10-07T22:43:51.983Z,4.67
2018-10-07T22:46:20.553Z,3.70
2018-10-07T22:48:48.771Z,3.90
2018-10-07T22:51:17.011Z,5.10
2018-10-07T22:53:45.227Z,4.33
2018-10-07T22:56:13.442Z,6.33
2018-10-07T22:58:41.611Z,4.17
2018-10-07T23:01:09.763Z,5.03
2018-10-07T23:03:38.013Z,5.27
2018-10-07T23:06:06.226Z,3.53
2018-10-07T23:08:34.423Z,4.37
2018-10-07T23:11:02.660Z,3.93
2018-10-07T23:13:30.774Z,4.77
2018-10-07T23:15:59.090Z,3.10
2018-10-07T23:18:27.295Z,4.60
2018-10-07T23:20:55.478Z,4.43
2018-10-07T23:23:23.684Z,4.30
2018-10-07T23:25:51.838Z,5.80
2018-10-07T23:28:20.000Z,4.73
2018-10-07T23:30:48.253Z,3.37
2018-10-07T23:33:16.509Z,4.97
2018-10-07T23:35:44.651Z,4.00
2018-10-07T23:38:12.860Z,5.03
2018-10-07T23:40:42.338Z,4.40
2018-10-07T23:43:10.536Z,4.10
2018-10-07T23:45:38.832Z,4.63
2018-10-07T23:48:06.955Z,3.83
2018-10-07T23:50:35.127Z,5.53
2018-10-07T23:53:03.364Z,4.33
2018-10-07T23:55:31.552Z,4.27
2018-10-07T23:57:59.977Z,4.40
